sensor_id;sensor_type;location;lat;lon;timestamp;temperature;humidity
64874;HTU21D;51367;45.204;38.576;2023-04-15T00:00:10;9.57;77.08
64874;HTU21D;51367;45.204;38.576;2023-04-15T00:02:39;9.55;77.11
64874;HTU21D;51367;45.204;38.576;2023-04-15T00:05:05;9.54;77.15
64874;HTU21D;51367;45.204;38.576;2023-04-15T00:07:32;9.52;77.19
64874;HTU21D;51367;45.204;38.576;2023-04-15T00:09:58;9.52;77.27
64874;HTU21D;51367;45.204;38.576;2023-04-15T00:12:25;9.52;77.29
64874;HTU21D;51367;45.204;38.576;2023-04-15T00:14:51;9.53;77.30
64874;HTU21D;51367;45.204;38.576;2023-04-15T00:17:17;9.54;77.29
64874;HTU21D;51367;45.204;38.576;2023-04-15T00:19:43;9.53;77.31
64874;HTU21D;51367;45.204;38.576;2023-04-15T00:22:11;9.53;77.37
64874;HTU21D;51367;45.204;38.576;2023-04-15T00:24:37;9.54;77.40
64874;HTU21D;51367;45.204;38.576;2023-04-15T00:27:03;9.55;77.43
64874;HTU21D;51367;45.204;38.576;2023-04-15T00:29:30;9.56;77.43
64874;HTU21D;51367;45.204;38.576;2023-04-15T00:31:56;9.56;77.44
64874;HTU21D;51367;45.204;38.576;2023-04-15T00:34:23;9.55;77.44
64874;HTU21D;51367;45.204;38.576;2023-04-15T00:36:52;9.54;77.43
64874;HTU21D;51367;45.204;38.576;2023-04-15T00:39:19;9.51;77.46
64874;HTU21D;51367;45.204;38.576;2023-04-15T00:41:46;9.49;77.48
64874;HTU21D;51367;45.204;38.576;2023-04-15T00:44:12;9.46;77.55
64874;HTU21D;51367;45.204;38.576;2023-04-15T00:46:39;9.45;77.60
64874;HTU21D;51367;45.204;38.576;2023-04-15T00:49:06;9.42;77.61
64874;HTU21D;51367;45.204;38.576;2023-04-15T00:51:33;9.38;77.63
64874;HTU21D;51367;45.204;38.576;2023-04-15T00:54:05;9.35;77.67
64874;HTU21D;51367;45.204;38.576;2023-04-15T00:56:36;9.29;77.69
64874;HTU21D;51367;45.204;38.576;2023-04-15T00:59:04;9.23;77.75
64874;HTU21D;51367;45.204;38.576;2023-04-15T01:01:34;9.19;77.79
64874;HTU21D;51367;45.204;38.576;2023-04-15T01:04:00;9.15;77.85
64874;HTU21D;51367;45.204;38.576;2023-04-15T01:06:26;9.11;77.89
64874;HTU21D;51367;45.204;38.576;2023-04-15T01:08:54;9.07;77.92
64874;HTU21D;51367;45.204;38.576;2023-04-15T01:11:20;9.05;77.94
64874;HTU21D;51367;45.204;38.576;2023-04-15T01:13:49;8.97;77.98
64874;HTU21D;51367;45.204;38.576;2023-04-15T01:16:18;8.93;78.03
64874;HTU21D;51367;45.204;38.576;2023-04-15T01:18:44;8.88;78.08
64874;HTU21D;51367;45.204;38.576;2023-04-15T01:21:10;8.82;78.12
64874;HTU21D;51367;45.204;38.576;2023-04-15T01:23:37;8.77;78.18
64874;HTU21D;51367;45.204;38.576;2023-04-15T01:26:06;8.73;78.24
64874;HTU21D;51367;45.204;38.576;2023-04-15T01:28:34;8.66;78.29
64874;HTU21D;51367;45.204;38.576;2023-04-15T01:31:05;8.61;78.34
64874;HTU21D;51367;45.204;38.576;2023-04-15T01:33:35;8.57;78.39
64874;HTU21D;51367;45.204;38.576;2023-04-15T01:36:02;8.51;78.43
64874;HTU21D;51367;45.204;38.576;2023-04-15T01:38:28;8.46;78.49
64874;HTU21D;51367;45.204;38.576;2023-04-15T01:40:54;8.41;78.56
64874;HTU21D;51367;45.204;38.576;2023-04-15T01:43:23;8.37;78.63
64874;HTU21D;51367;45.204;38.576;2023-04-15T01:45:49;8.33;78.66
64874;HTU21D;51367;45.204;38.576;2023-04-15T01:48:15;8.30;78.71
64874;HTU21D;51367;45.204;38.576;2023-04-15T01:50:42;8.29;78.75
64874;HTU21D;51367;45.204;38.576;2023-04-15T01:53:08;8.27;78.79
64874;HTU21D;51367;45.204;38.576;2023-04-15T01:55:34;8.24;78.82
64874;HTU21D;51367;45.204;38.576;2023-04-15T01:58:00;8.21;78.87
64874;HTU21D;51367;45.204;38.576;2023-04-15T02:00:26;8.20;78.89
64874;HTU21D;51367;45.204;38.576;2023-04-15T02:02:52;8.18;78.95
64874;HTU21D;51367;45.204;38.576;2023-04-15T02:05:18;8.16;78.96
64874;HTU21D;51367;45.204;38.576;2023-04-15T02:07:47;8.15;78.98
64874;HTU21D;51367;45.204;38.576;2023-04-15T02:10:13;8.14;79.00
64874;HTU21D;51367;45.204;38.576;2023-04-15T02:12:41;8.12;79.02
64874;HTU21D;51367;45.204;38.576;2023-04-15T02:15:07;8.07;79.05
64874;HTU21D;51367;45.204;38.576;2023-04-15T02:17:35;8.04;79.08
64874;HTU21D;51367;45.204;38.576;2023-04-15T02:20:02;8.01;79.11
64874;HTU21D;51367;45.204;38.576;2023-04-15T02:22:31;7.97;79.14
64874;HTU21D;51367;45.204;38.576;2023-04-15T02:24:57;7.93;79.20
64874;HTU21D;51367;45.204;38.576;2023-04-15T02:27:23;7.90;79.22
64874;HTU21D;51367;45.204;38.576;2023-04-15T02:29:49;7.87;79.26
64874;HTU21D;51367;45.204;38.576;2023-04-15T02:32:17;7.82;79.27
64874;HTU21D;51367;45.204;38.576;2023-04-15T02:34:45;7.78;79.33
64874;HTU21D;51367;45.204;38.576;2023-04-15T02:37:13;7.75;79.36
64874;HTU21D;51367;45.204;38.576;2023-04-15T02:39:39;7.68;79.40
64874;HTU21D;51367;45.204;38.576;2023-04-15T02:42:05;7.62;79.50
64874;HTU21D;51367;45.204;38.576;2023-04-15T02:44:32;7.55;79.61
64874;HTU21D;51367;45.204;38.576;2023-04-15T02:47:01;7.47;79.77
64874;HTU21D;51367;45.204;38.576;2023-04-15T02:49:29;7.41;80.59
64874;HTU21D;51367;45.204;38.576;2023-04-15T02:51:55;7.32;80.20
64874;HTU21D;51367;45.204;38.576;2023-04-15T02:54:23;7.29;80.30
64874;HTU21D;51367;45.204;38.576;2023-04-15T02:56:49;7.24;81.23
64874;HTU21D;51367;45.204;38.576;2023-04-15T02:59:15;7.18;80.89
64874;HTU21D;51367;45.204;38.576;2023-04-15T03:01:41;7.13;80.61
64874;HTU21D;51367;45.204;38.576;2023-04-15T03:04:08;7.09;80.59
64874;HTU21D;51367;45.204;38.576;2023-04-15T03:06:34;7.09;80.61
64874;HTU21D;51367;45.204;38.576;2023-04-15T03:09:01;7.12;80.56
64874;HTU21D;51367;45.204;38.576;2023-04-15T03:11:31;7.14;80.49
64874;HTU21D;51367;45.204;38.576;2023-04-15T03:13:58;7.16;80.45
64874;HTU21D;51367;45.204;38.576;2023-04-15T03:16:31;7.18;80.37
64874;HTU21D;51367;45.204;38.576;2023-04-15T03:18:57;7.22;80.30
64874;HTU21D;51367;45.204;38.576;2023-04-15T03:21:24;7.19;80.23
64874;HTU21D;51367;45.204;38.576;2023-04-15T03:23:52;7.15;80.32
64874;HTU21D;51367;45.204;38.576;2023-04-15T03:26:28;7.14;80.46
64874;HTU21D;51367;45.204;38.576;2023-04-15T03:28:58;7.16;80.52
64874;HTU21D;51367;45.204;38.576;2023-04-15T03:31:24;7.23;80.52
64874;HTU21D;51367;45.204;38.576;2023-04-15T03:33:49;7.28;80.44
64874;HTU21D;51367;45.204;38.576;2023-04-15T03:36:16;7.29;80.36
64874;HTU21D;51367;45.204;38.576;2023-04-15T03:38:42;7.29;80.35
64874;HTU21D;51367;45.204;38.576;2023-04-15T03:41:08;7.30;80.45
64874;HTU21D;51367;45.204;38.576;2023-04-15T03:43:34;7.35;80.51
64874;HTU21D;51367;45.204;38.576;2023-04-15T03:46:00;7.43;80.46
64874;HTU21D;51367;45.204;38.576;2023-04-15T03:48:27;7.49;80.39
64874;HTU21D;51367;45.204;38.576;2023-04-15T03:50:52;7.55;81.10
64874;HTU21D;51367;45.204;38.576;2023-04-15T03:53:20;7.61;80.56
64874;HTU21D;51367;45.204;38.576;2023-04-15T03:55:46;7.72;80.59
64874;HTU21D;51367;45.204;38.576;2023-04-15T03:58:12;7.84;80.72
64874;HTU21D;51367;45.204;38.576;2023-04-15T04:00:39;7.98;80.92
64874;HTU21D;51367;45.204;38.576;2023-04-15T04:03:06;8.12;80.90
64874;HTU21D;51367;45.204;38.576;2023-04-15T04:05:32;8.24;80.71
64874;HTU21D;51367;45.204;38.576;2023-04-15T04:08:01;8.38;80.83
64874;HTU21D;51367;45.204;38.576;2023-04-15T04:10:27;8.49;80.81
64874;HTU21D;51367;45.204;38.576;2023-04-15T04:12:53;8.61;80.66
64874;HTU21D;51367;45.204;38.576;2023-04-15T04:15:19;8.74;80.67
64874;HTU21D;51367;45.204;38.576;2023-04-15T04:17:45;8.90;80.61
64874;HTU21D;51367;45.204;38.576;2023-04-15T04:20:11;9.07;80.91
64874;HTU21D;51367;45.204;38.576;2023-04-15T04:22:40;9.29;80.84
64874;HTU21D;51367;45.204;38.576;2023-04-15T04:25:07;9.52;81.56
64874;HTU21D;51367;45.204;38.576;2023-04-15T04:27:35;9.68;81.94
64874;HTU21D;51367;45.204;38.576;2023-04-15T04:30:00;9.77;81.20
64874;HTU21D;51367;45.204;38.576;2023-04-15T04:32:26;9.86;81.50
64874;HTU21D;51367;45.204;38.576;2023-04-15T04:34:52;9.94;81.67
64874;HTU21D;51367;45.204;38.576;2023-04-15T04:37:18;10.04;81.07
64874;HTU21D;51367;45.204;38.576;2023-04-15T04:39:44;10.18;81.82
64874;HTU21D;51367;45.204;38.576;2023-04-15T04:42:10;10.26;81.41
64874;HTU21D;51367;45.204;38.576;2023-04-15T04:44:36;10.42;81.19
64874;HTU21D;51367;45.204;38.576;2023-04-15T04:47:02;10.66;81.15
64874;HTU21D;51367;45.204;38.576;2023-04-15T04:49:28;10.97;81.23
64874;HTU21D;51367;45.204;38.576;2023-04-15T04:51:54;11.16;81.33
64874;HTU21D;51367;45.204;38.576;2023-04-15T04:54:20;11.22;81.51
64874;HTU21D;51367;45.204;38.576;2023-04-15T04:56:46;11.29;81.39
64874;HTU21D;51367;45.204;38.576;2023-04-15T04:59:12;11.48;81.75
64874;HTU21D;51367;45.204;38.576;2023-04-15T05:01:38;11.72;81.61
64874;HTU21D;51367;45.204;38.576;2023-04-15T05:04:04;12.02;81.98
64874;HTU21D;51367;45.204;38.576;2023-04-15T05:06:32;12.37;81.90
64874;HTU21D;51367;45.204;38.576;2023-04-15T05:08:58;12.69;81.59
64874;HTU21D;51367;45.204;38.576;2023-04-15T05:11:24;12.97;80.90
64874;HTU21D;51367;45.204;38.576;2023-04-15T05:13:50;13.23;79.55
64874;HTU21D;51367;45.204;38.576;2023-04-15T05:16:16;13.35;79.17
64874;HTU21D;51367;45.204;38.576;2023-04-15T05:18:42;13.55;79.01
64874;HTU21D;51367;45.204;38.576;2023-04-15T05:21:09;13.74;78.41
64874;HTU21D;51367;45.204;38.576;2023-04-15T05:23:35;13.94;77.80
64874;HTU21D;51367;45.204;38.576;2023-04-15T05:26:01;14.10;77.97
64874;HTU21D;51367;45.204;38.576;2023-04-15T05:28:27;14.33;78.38
64874;HTU21D;51367;45.204;38.576;2023-04-15T05:30:53;14.65;78.98
64874;HTU21D;51367;45.204;38.576;2023-04-15T05:33:19;15.09;79.02
64874;HTU21D;51367;45.204;38.576;2023-04-15T05:35:44;15.51;79.15
64874;HTU21D;51367;45.204;38.576;2023-04-15T05:38:10;15.70;77.31
64874;HTU21D;51367;45.204;38.576;2023-04-15T05:40:36;15.89;78.37
64874;HTU21D;51367;45.204;38.576;2023-04-15T05:43:02;16.44;78.56
64874;HTU21D;51367;45.204;38.576;2023-04-15T05:45:28;16.96;76.38
64874;HTU21D;51367;45.204;38.576;2023-04-15T05:47:54;17.29;76.11
64874;HTU21D;51367;45.204;38.576;2023-04-15T05:50:21;17.73;75.19
64874;HTU21D;51367;45.204;38.576;2023-04-15T05:52:46;18.15;73.80
64874;HTU21D;51367;45.204;38.576;2023-04-15T05:55:12;18.54;72.70
64874;HTU21D;51367;45.204;38.576;2023-04-15T05:57:39;18.78;72.25
64874;HTU21D;51367;45.204;38.576;2023-04-15T06:00:05;18.94;73.05
64874;HTU21D;51367;45.204;38.576;2023-04-15T06:02:35;19.03;71.59
64874;HTU21D;51367;45.204;38.576;2023-04-15T06:05:01;19.07;73.76
64874;HTU21D;51367;45.204;38.576;2023-04-15T06:07:45;19.62;74.70
64874;HTU21D;51367;45.204;38.576;2023-04-15T06:10:30;20.35;73.18
64874;HTU21D;51367;45.204;38.576;2023-04-15T06:13:01;20.87;72.38
64874;HTU21D;51367;45.204;38.576;2023-04-15T06:15:29;21.46;71.05
64874;HTU21D;51367;45.204;38.576;2023-04-15T06:17:55;22.06;69.43
64874;HTU21D;51367;45.204;38.576;2023-04-15T06:20:21;22.44;68.26
64874;HTU21D;51367;45.204;38.576;2023-04-15T06:22:47;22.69;67.85
64874;HTU21D;51367;45.204;38.576;2023-04-15T06:25:13;23.01;67.06
64874;HTU21D;51367;45.204;38.576;2023-04-15T06:27:39;23.34;65.73
64874;HTU21D;51367;45.204;38.576;2023-04-15T06:30:05;23.55;64.61
64874;HTU21D;51367;45.204;38.576;2023-04-15T06:32:32;23.70;64.39
64874;HTU21D;51367;45.204;38.576;2023-04-15T06:34:58;23.85;64.32
64874;HTU21D;51367;45.204;38.576;2023-04-15T06:37:24;24.06;63.89
64874;HTU21D;51367;45.204;38.576;2023-04-15T06:39:50;24.33;63.32
64874;HTU21D;51367;45.204;38.576;2023-04-15T06:42:16;24.66;62.47
64874;HTU21D;51367;45.204;38.576;2023-04-15T06:44:42;24.99;61.53
64874;HTU21D;51367;45.204;38.576;2023-04-15T06:47:08;25.16;60.44
64874;HTU21D;51367;45.204;38.576;2023-04-15T06:49:34;25.32;59.85
64874;HTU21D;51367;45.204;38.576;2023-04-15T06:52:00;25.47;59.42
64874;HTU21D;51367;45.204;38.576;2023-04-15T06:54:26;25.56;59.09
64874;HTU21D;51367;45.204;38.576;2023-04-15T06:56:52;25.69;58.74
64874;HTU21D;51367;45.204;38.576;2023-04-15T06:59:18;25.92;58.46
64874;HTU21D;51367;45.204;38.576;2023-04-15T07:01:44;26.05;58.26
64874;HTU21D;51367;45.204;38.576;2023-04-15T07:04:11;26.19;57.93
64874;HTU21D;51367;45.204;38.576;2023-04-15T07:06:37;26.32;57.32
64874;HTU21D;51367;45.204;38.576;2023-04-15T07:09:03;26.47;57.00
64874;HTU21D;51367;45.204;38.576;2023-04-15T07:11:29;26.67;56.41
64874;HTU21D;51367;45.204;38.576;2023-04-15T07:13:57;26.55;54.09
64874;HTU21D;51367;45.204;38.576;2023-04-15T07:16:23;25.98;55.07
64874;HTU21D;51367;45.204;38.576;2023-04-15T07:18:49;25.77;55.19
64874;HTU21D;51367;45.204;38.576;2023-04-15T07:21:14;25.79;55.37
64874;HTU21D;51367;45.204;38.576;2023-04-15T07:23:41;25.95;54.84
64874;HTU21D;51367;45.204;38.576;2023-04-15T07:26:07;26.15;54.43
64874;HTU21D;51367;45.204;38.576;2023-04-15T07:28:33;26.40;53.99
64874;HTU21D;51367;45.204;38.576;2023-04-15T07:30:59;26.63;53.21
64874;HTU21D;51367;45.204;38.576;2023-04-15T07:33:25;26.81;52.84
64874;HTU21D;51367;45.204;38.576;2023-04-15T07:35:51;26.90;52.20
64874;HTU21D;51367;45.204;38.576;2023-04-15T07:38:17;26.72;49.60
64874;HTU21D;51367;45.204;38.576;2023-04-15T07:40:43;26.38;51.11
64874;HTU21D;51367;45.204;38.576;2023-04-15T07:43:09;26.34;50.71
64874;HTU21D;51367;45.204;38.576;2023-04-15T07:45:35;26.40;50.72
64874;HTU21D;51367;45.204;38.576;2023-04-15T07:48:01;26.37;48.31
64874;HTU21D;51367;45.204;38.576;2023-04-15T07:50:27;26.07;49.79
64874;HTU21D;51367;45.204;38.576;2023-04-15T07:52:53;25.74;48.36
64874;HTU21D;51367;45.204;38.576;2023-04-15T07:55:19;25.07;48.00
64874;HTU21D;51367;45.204;38.576;2023-04-15T07:57:48;24.55;49.11
64874;HTU21D;51367;45.204;38.576;2023-04-15T08:00:15;24.53;49.65
64874;HTU21D;51367;45.204;38.576;2023-04-15T08:02:41;24.54;49.07
64874;HTU21D;51367;45.204;38.576;2023-04-15T08:05:08;24.53;49.10
64874;HTU21D;51367;45.204;38.576;2023-04-15T08:07:36;24.57;47.83
64874;HTU21D;51367;45.204;38.576;2023-04-15T08:10:03;24.24;48.38
64874;HTU21D;51367;45.204;38.576;2023-04-15T08:12:29;24.18;48.94
64874;HTU21D;51367;45.204;38.576;2023-04-15T08:14:55;24.19;47.92
64874;HTU21D;51367;45.204;38.576;2023-04-15T08:17:22;23.81;47.53
64874;HTU21D;51367;45.204;38.576;2023-04-15T08:19:48;23.62;48.40
64874;HTU21D;51367;45.204;38.576;2023-04-15T08:22:14;23.25;47.75
64874;HTU21D;51367;45.204;38.576;2023-04-15T08:24:40;22.96;49.24
64874;HTU21D;51367;45.204;38.576;2023-04-15T08:27:06;22.84;48.89
64874;HTU21D;51367;45.204;38.576;2023-04-15T08:29:33;22.26;48.80
64874;HTU21D;51367;45.204;38.576;2023-04-15T08:31:59;21.74;50.12
64874;HTU21D;51367;45.204;38.576;2023-04-15T08:34:26;21.43;50.20
64874;HTU21D;51367;45.204;38.576;2023-04-15T08:36:52;21.14;51.48
64874;HTU21D;51367;45.204;38.576;2023-04-15T08:39:18;21.28;51.95
64874;HTU21D;51367;45.204;38.576;2023-04-15T08:41:52;21.40;51.92
64874;HTU21D;51367;45.204;38.576;2023-04-15T08:44:22;21.46;51.98
64874;HTU21D;51367;45.204;38.576;2023-04-15T08:46:50;21.61;51.94
64874;HTU21D;51367;45.204;38.576;2023-04-15T08:49:18;21.77;52.04
64874;HTU21D;51367;45.204;38.576;2023-04-15T08:51:46;21.89;52.06
64874;HTU21D;51367;45.204;38.576;2023-04-15T08:54:13;21.82;52.19
64874;HTU21D;51367;45.204;38.576;2023-04-15T08:56:39;21.43;51.21
64874;HTU21D;51367;45.204;38.576;2023-04-15T08:59:05;20.84;52.76
64874;HTU21D;51367;45.204;38.576;2023-04-15T09:01:32;20.54;54.10
64874;HTU21D;51367;45.204;38.576;2023-04-15T09:03:58;20.31;54.18
64874;HTU21D;51367;45.204;38.576;2023-04-15T09:06:24;20.10;54.66
64874;HTU21D;51367;45.204;38.576;2023-04-15T09:08:51;19.95;55.20
64874;HTU21D;51367;45.204;38.576;2023-04-15T09:11:17;19.83;55.49
64874;HTU21D;51367;45.204;38.576;2023-04-15T09:13:44;19.87;55.71
64874;HTU21D;51367;45.204;38.576;2023-04-15T09:16:11;20.01;55.42
64874;HTU21D;51367;45.204;38.576;2023-04-15T09:18:38;20.09;55.56
64874;HTU21D;51367;45.204;38.576;2023-04-15T09:21:15;20.12;55.32
64874;HTU21D;51367;45.204;38.576;2023-04-15T09:26:35;20.00;55.51
64874;HTU21D;51367;45.204;38.576;2023-04-15T09:29:09;20.12;55.87
64874;HTU21D;51367;45.204;38.576;2023-04-15T09:31:38;20.35;55.78
64874;HTU21D;51367;45.204;38.576;2023-04-15T09:34:04;20.56;55.49
64874;HTU21D;51367;45.204;38.576;2023-04-15T09:36:57;20.61;54.96
64874;HTU21D;51367;45.204;38.576;2023-04-15T09:39:23;20.59;55.34
64874;HTU21D;51367;45.204;38.576;2023-04-15T09:42:05;20.20;55.06
64874;HTU21D;51367;45.204;38.576;2023-04-15T09:44:31;19.86;55.89
64874;HTU21D;51367;45.204;38.576;2023-04-15T09:46:57;19.82;56.75
64874;HTU21D;51367;45.204;38.576;2023-04-15T09:49:23;19.81;56.83
64874;HTU21D;51367;45.204;38.576;2023-04-15T09:51:49;19.87;57.20
64874;HTU21D;51367;45.204;38.576;2023-04-15T09:54:20;19.90;57.42
64874;HTU21D;51367;45.204;38.576;2023-04-15T09:56:47;19.87;57.43
64874;HTU21D;51367;45.204;38.576;2023-04-15T09:59:13;19.88;57.45
64874;HTU21D;51367;45.204;38.576;2023-04-15T10:01:40;19.86;57.76
64874;HTU21D;51367;45.204;38.576;2023-04-15T10:04:07;19.88;57.82
64874;HTU21D;51367;45.204;38.576;2023-04-15T10:06:34;19.85;57.93
64874;HTU21D;51367;45.204;38.576;2023-04-15T10:09:00;19.74;57.84
64874;HTU21D;51367;45.204;38.576;2023-04-15T10:11:28;19.62;57.84
64874;HTU21D;51367;45.204;38.576;2023-04-15T10:13:55;19.51;57.85
64874;HTU21D;51367;45.204;38.576;2023-04-15T10:16:22;19.56;58.32
64874;HTU21D;51367;45.204;38.576;2023-04-15T10:18:56;19.60;57.88
64874;HTU21D;51367;45.204;38.576;2023-04-15T10:21:23;19.66;58.17
64874;HTU21D;51367;45.204;38.576;2023-04-15T10:23:50;19.80;58.03
64874;HTU21D;51367;45.204;38.576;2023-04-15T10:26:16;19.77;57.90
64874;HTU21D;51367;45.204;38.576;2023-04-15T10:28:45;19.86;58.32
64874;HTU21D;51367;45.204;38.576;2023-04-15T10:31:14;19.95;58.23
64874;HTU21D;51367;45.204;38.576;2023-04-15T10:33:41;19.94;57.99
64874;HTU21D;51367;45.204;38.576;2023-04-15T10:36:08;19.90;58.12
64874;HTU21D;51367;45.204;38.576;2023-04-15T10:38:39;19.97;58.42
64874;HTU21D;51367;45.204;38.576;2023-04-15T10:43:45;19.86;58.70
64874;HTU21D;51367;45.204;38.576;2023-04-15T10:46:11;19.88;58.90
64874;HTU21D;51367;45.204;38.576;2023-04-15T10:48:37;19.89;58.56
64874;HTU21D;51367;45.204;38.576;2023-04-15T10:51:03;19.87;58.69
64874;HTU21D;51367;45.204;38.576;2023-04-15T10:53:30;19.84;59.03
64874;HTU21D;51367;45.204;38.576;2023-04-15T10:55:56;19.87;59.82
64874;HTU21D;51367;45.204;38.576;2023-04-15T10:58:24;19.76;59.47
64874;HTU21D;51367;45.204;38.576;2023-04-15T11:00:51;19.65;59.70
64874;HTU21D;51367;45.204;38.576;2023-04-15T11:03:36;19.52;60.31
64874;HTU21D;51367;45.204;38.576;2023-04-15T11:06:02;19.28;60.82
64874;HTU21D;51367;45.204;38.576;2023-04-15T11:08:57;19.23;61.54
64874;HTU21D;51367;45.204;38.576;2023-04-15T11:12:15;19.14;61.23
64874;HTU21D;51367;45.204;38.576;2023-04-15T11:14:41;19.24;61.31
64874;HTU21D;51367;45.204;38.576;2023-04-15T11:17:07;19.32;61.41
64874;HTU21D;51367;45.204;38.576;2023-04-15T11:19:39;19.44;61.07
64874;HTU21D;51367;45.204;38.576;2023-04-15T11:22:09;19.59;60.98
64874;HTU21D;51367;45.204;38.576;2023-04-15T11:24:36;19.61;60.51
64874;HTU21D;51367;45.204;38.576;2023-04-15T11:27:22;19.58;60.54
64874;HTU21D;51367;45.204;38.576;2023-04-15T11:29:48;19.32;60.94
64874;HTU21D;51367;45.204;38.576;2023-04-15T11:32:14;19.02;61.62
64874;HTU21D;51367;45.204;38.576;2023-04-15T11:34:40;18.81;61.94
64874;HTU21D;51367;45.204;38.576;2023-04-15T11:37:06;18.62;62.68
64874;HTU21D;51367;45.204;38.576;2023-04-15T11:39:32;18.49;63.15
64874;HTU21D;51367;45.204;38.576;2023-04-15T11:41:58;18.46;63.60
64874;HTU21D;51367;45.204;38.576;2023-04-15T11:44:43;18.58;64.72
64874;HTU21D;51367;45.204;38.576;2023-04-15T11:47:27;18.66;64.37
64874;HTU21D;51367;45.204;38.576;2023-04-15T11:49:53;18.67;63.73
64874;HTU21D;51367;45.204;38.576;2023-04-15T11:52:19;18.58;63.79
64874;HTU21D;51367;45.204;38.576;2023-04-15T11:54:45;18.53;64.05
64874;HTU21D;51367;45.204;38.576;2023-04-15T11:57:12;18.62;64.48
64874;HTU21D;51367;45.204;38.576;2023-04-15T11:59:42;18.55;64.40
64874;HTU21D;51367;45.204;38.576;2023-04-15T12:02:11;18.47;64.51
64874;HTU21D;51367;45.204;38.576;2023-04-15T12:04:37;18.43;64.66
64874;HTU21D;51367;45.204;38.576;2023-04-15T12:07:04;18.47;64.59
64874;HTU21D;51367;45.204;38.576;2023-04-15T12:09:36;18.44;64.50
64874;HTU21D;51367;45.204;38.576;2023-04-15T12:12:02;18.12;64.54
64874;HTU21D;51367;45.204;38.576;2023-04-15T12:14:30;17.78;65.23
64874;HTU21D;51367;45.204;38.576;2023-04-15T12:17:01;17.41;66.76
64874;HTU21D;51367;45.204;38.576;2023-04-15T12:19:40;17.28;67.20
64874;HTU21D;51367;45.204;38.576;2023-04-15T12:22:12;17.18;67.94
64874;HTU21D;51367;45.204;38.576;2023-04-15T12:24:38;17.17;67.49
64874;HTU21D;51367;45.204;38.576;2023-04-15T12:27:07;17.18;66.97
64874;HTU21D;51367;45.204;38.576;2023-04-15T12:29:34;17.06;67.42
64874;HTU21D;51367;45.204;38.576;2023-04-15T12:32:08;17.02;67.44
64874;HTU21D;51367;45.204;38.576;2023-04-15T12:34:37;17.06;67.66
64874;HTU21D;51367;45.204;38.576;2023-04-15T12:37:05;17.15;67.43
64874;HTU21D;51367;45.204;38.576;2023-04-15T12:39:36;17.13;66.99
64874;HTU21D;51367;45.204;38.576;2023-04-15T12:42:03;16.92;67.16
64874;HTU21D;51367;45.204;38.576;2023-04-15T12:44:30;16.75;67.72
64874;HTU21D;51367;45.204;38.576;2023-04-15T12:46:56;16.73;68.10
64874;HTU21D;51367;45.204;38.576;2023-04-15T12:49:23;16.74;68.55
64874;HTU21D;51367;45.204;38.576;2023-04-15T12:51:52;16.78;67.96
64874;HTU21D;51367;45.204;38.576;2023-04-15T12:54:18;16.64;67.88
64874;HTU21D;51367;45.204;38.576;2023-04-15T12:56:45;16.47;68.44
64874;HTU21D;51367;45.204;38.576;2023-04-15T12:59:12;16.37;68.33
64874;HTU21D;51367;45.204;38.576;2023-04-15T13:01:38;16.37;69.10
64874;HTU21D;51367;45.204;38.576;2023-04-15T13:04:04;16.44;68.68
64874;HTU21D;51367;45.204;38.576;2023-04-15T13:06:31;16.45;68.62
64874;HTU21D;51367;45.204;38.576;2023-04-15T13:08:58;16.42;68.26
64874;HTU21D;51367;45.204;38.576;2023-04-15T13:11:27;16.33;68.62
64874;HTU21D;51367;45.204;38.576;2023-04-15T13:13:56;16.26;68.57
64874;HTU21D;51367;45.204;38.576;2023-04-15T13:16:25;16.26;68.46
64874;HTU21D;51367;45.204;38.576;2023-04-15T13:18:51;16.20;68.68
64874;HTU21D;51367;45.204;38.576;2023-04-15T13:21:18;16.18;68.78
64874;HTU21D;51367;45.204;38.576;2023-04-15T13:23:44;16.12;69.04
64874;HTU21D;51367;45.204;38.576;2023-04-15T13:26:10;16.13;69.00
64874;HTU21D;51367;45.204;38.576;2023-04-15T13:28:36;16.12;68.73
64874;HTU21D;51367;45.204;38.576;2023-04-15T13:31:03;16.10;69.09
64874;HTU21D;51367;45.204;38.576;2023-04-15T13:33:29;16.05;68.98
64874;HTU21D;51367;45.204;38.576;2023-04-15T13:35:55;15.98;69.07
64874;HTU21D;51367;45.204;38.576;2023-04-15T13:38:23;15.89;69.05
64874;HTU21D;51367;45.204;38.576;2023-04-15T13:40:49;15.86;69.27
64874;HTU21D;51367;45.204;38.576;2023-04-15T13:43:16;15.82;69.48
64874;HTU21D;51367;45.204;38.576;2023-04-15T13:45:42;15.87;69.36
64874;HTU21D;51367;45.204;38.576;2023-04-15T13:48:08;15.91;68.94
64874;HTU21D;51367;45.204;38.576;2023-04-15T13:50:34;15.88;68.66
64874;HTU21D;51367;45.204;38.576;2023-04-15T13:53:00;15.87;68.83
64874;HTU21D;51367;45.204;38.576;2023-04-15T13:55:26;15.87;69.14
64874;HTU21D;51367;45.204;38.576;2023-04-15T13:57:52;15.86;68.73
64874;HTU21D;51367;45.204;38.576;2023-04-15T14:00:18;15.76;68.60
64874;HTU21D;51367;45.204;38.576;2023-04-15T14:02:44;15.69;68.80
64874;HTU21D;51367;45.204;38.576;2023-04-15T14:05:11;15.67;68.94
64874;HTU21D;51367;45.204;38.576;2023-04-15T14:07:37;15.61;68.81
64874;HTU21D;51367;45.204;38.576;2023-04-15T14:10:03;15.51;68.83
64874;HTU21D;51367;45.204;38.576;2023-04-15T14:12:29;15.40;69.18
64874;HTU21D;51367;45.204;38.576;2023-04-15T14:14:55;15.34;69.27
64874;HTU21D;51367;45.204;38.576;2023-04-15T14:17:21;15.31;69.47
64874;HTU21D;51367;45.204;38.576;2023-04-15T14:19:47;15.23;69.35
64874;HTU21D;51367;45.204;38.576;2023-04-15T14:22:13;15.15;69.61
64874;HTU21D;51367;45.204;38.576;2023-04-15T14:24:39;15.12;69.65
64874;HTU21D;51367;45.204;38.576;2023-04-15T14:27:05;15.04;70.33
64874;HTU21D;51367;45.204;38.576;2023-04-15T14:29:33;14.93;70.68
64874;HTU21D;51367;45.204;38.576;2023-04-15T14:31:59;14.85;70.34
64874;HTU21D;51367;45.204;38.576;2023-04-15T14:34:25;14.85;70.45
64874;HTU21D;51367;45.204;38.576;2023-04-15T14:36:51;14.81;70.42
64874;HTU21D;51367;45.204;38.576;2023-04-15T14:39:18;14.73;70.35
64874;HTU21D;51367;45.204;38.576;2023-04-15T14:41:45;14.67;70.33
64874;HTU21D;51367;45.204;38.576;2023-04-15T14:44:11;14.63;70.27
64874;HTU21D;51367;45.204;38.576;2023-04-15T14:46:37;14.55;70.45
64874;HTU21D;51367;45.204;38.576;2023-04-15T14:49:05;14.45;70.84
64874;HTU21D;51367;45.204;38.576;2023-04-15T14:51:31;14.32;71.15
64874;HTU21D;51367;45.204;38.576;2023-04-15T14:53:57;14.23;71.11
64874;HTU21D;51367;45.204;38.576;2023-04-15T14:56:23;14.15;71.21
64874;HTU21D;51367;45.204;38.576;2023-04-15T14:58:49;14.10;71.56
64874;HTU21D;51367;45.204;38.576;2023-04-15T15:01:18;14.01;71.39
64874;HTU21D;51367;45.204;38.576;2023-04-15T15:03:44;13.94;71.48
64874;HTU21D;51367;45.204;38.576;2023-04-15T15:06:10;13.88;71.42
64874;HTU21D;51367;45.204;38.576;2023-04-15T15:08:36;13.84;71.45
64874;HTU21D;51367;45.204;38.576;2023-04-15T15:11:02;13.81;71.54